createdAt,value
2017-10-18T00:00:06.839Z,1007.54
2017-10-18T00:00:14.969Z,1007.59
2017-10-18T00:00:23.101Z,1007.58
2017-10-18T00:00:31.246Z,1007.57
2017-10-18T00:00:39.377Z,1007.47
2017-10-18T00:00:47.537Z,1007.48
2017-10-18T00:00:55.662Z,1007.53
2017-10-18T00:01:03.803Z,1007.64
2017-10-18T00:01:11.930Z,1007.54
2017-10-18T00:01:20.060Z,1007.54
2017-10-18T00:01:28.206Z,1007.58
2017-10-18T00:01:36.358Z,1007.54
2017-10-18T00:01:44.474Z,1007.44
2017-10-18T00:01:52.620Z,1007.57
2017-10-18T00:02:00.745Z,1007.58
2017-10-18T00:02:08.886Z,1007.53
2017-10-18T00:02:17.031Z,1007.58
2017-10-18T00:02:25.176Z,1007.50
2017-10-18T00:02:33.318Z,1007.54
2017-10-18T00:02:41.485Z,1007.51
2017-10-18T00:02:49.574Z,1007.56
2017-10-18T00:02:57.709Z,1007.52
2017-10-18T00:03:05.859Z,1007.57
2017-10-18T00:03:13.997Z,1007.52
2017-10-18T00:03:22.125Z,1007.56
2017-10-18T00:03:30.257Z,1007.50
2017-10-18T00:03:38.400Z,1007.56
2017-10-18T00:03:46.534Z,1007.47
2017-10-18T00:03:54.674Z,1007.50
2017-10-18T00:04:02.822Z,1007.50
2017-10-18T00:04:10.956Z,1007.58
2017-10-18T00:04:19.091Z,1007.58
2017-10-18T00:04:27.226Z,1007.55
2017-10-18T00:04:35.390Z,1007.59
2017-10-18T00:04:43.523Z,1007.49
2017-10-18T00:04:51.654Z,1007.51
2017-10-18T00:04:59.814Z,1007.60
2017-10-18T00:05:07.926Z,1007.56
2017-10-18T00:05:16.065Z,1007.49
2017-10-18T00:05:24.179Z,1007.57
2017-10-18T00:05:32.335Z,1007.50
2017-10-18T00:05:40.467Z,1007.55
2017-10-18T00:05:48.605Z,1007.50
2017-10-18T00:05:56.745Z,1007.55
2017-10-18T00:06:04.873Z,1007.50
2017-10-18T00:06:13.001Z,1007.53
2017-10-18T00:06:21.151Z,1007.56
2017-10-18T00:06:29.281Z,1007.51
2017-10-18T00:06:37.439Z,1007.59
2017-10-18T00:06:45.557Z,1007.55
2017-10-18T00:06:53.698Z,1007.51
2017-10-18T00:07:06.099Z,1007.51
2017-10-18T00:07:14.206Z,1007.52
2017-10-18T00:07:22.332Z,1007.55
2017-10-18T00:07:30.469Z,1007.51
2017-10-18T00:07:38.606Z,1007.54
2017-10-18T00:07:46.757Z,1007.53
2017-10-18T00:07:54.884Z,1007.54
2017-10-18T00:08:03.030Z,1007.51
2017-10-18T00:08:11.170Z,1007.57
2017-10-18T00:08:19.297Z,1007.48
2017-10-18T00:08:27.441Z,1007.57
2017-10-18T00:08:35.586Z,1007.53
2017-10-18T00:08:45.313Z,1007.47
2017-10-18T00:08:53.445Z,1007.49
2017-10-18T00:09:01.583Z,1007.53
2017-10-18T00:09:09.929Z,1007.53
2017-10-18T00:09:17.882Z,1007.57
2017-10-18T00:09:25.997Z,1007.53
2017-10-18T00:09:34.141Z,1007.47
2017-10-18T00:09:42.270Z,1007.54
2017-10-18T00:09:50.401Z,1007.56
2017-10-18T00:09:58.553Z,1007.54
2017-10-18T00:10:06.685Z,1007.56
2017-10-18T00:10:14.847Z,1007.60
2017-10-18T00:10:23.154Z,1007.60
2017-10-18T00:10:31.097Z,1007.51
2017-10-18T00:10:39.229Z,1007.54
2017-10-18T00:10:47.365Z,1007.49
2017-10-18T00:10:55.509Z,1007.56
2017-10-18T00:11:03.633Z,1007.58
2017-10-18T00:11:11.785Z,1007.54
2017-10-18T00:11:19.913Z,1007.55
2017-10-18T00:11:28.062Z,1007.56
2017-10-18T00:11:36.194Z,1007.51
2017-10-18T00:11:44.342Z,1007.57
2017-10-18T00:11:52.474Z,1007.59
2017-10-18T00:12:00.601Z,1007.59
2017-10-18T00:12:08.741Z,1007.57
2017-10-18T00:12:16.908Z,1007.61
2017-10-18T00:12:25.013Z,1007.54
2017-10-18T00:12:33.159Z,1007.55
2017-10-18T00:12:41.293Z,1007.57
2017-10-18T00:12:49.430Z,1007.54
2017-10-18T00:12:57.566Z,1007.52
2017-10-18T00:13:05.702Z,1007.49
2017-10-18T00:13:13.853Z,1007.60
2017-10-18T00:13:21.988Z,1007.54
2017-10-18T00:13:30.122Z,1007.62
2017-10-18T00:13:38.250Z,1007.61
2017-10-18T00:13:46.400Z,1007.60
2017-10-18T00:13:54.522Z,1007.56
2017-10-18T00:14:02.662Z,1007.55
2017-10-18T00:14:10.806Z,1007.56
2017-10-18T00:14:18.957Z,1007.59
2017-10-18T00:14:27.073Z,1007.54
2017-10-18T00:14:35.238Z,1007.60
2017-10-18T00:14:43.350Z,1007.54
2017-10-18T00:14:51.482Z,1007.56
2017-10-18T00:14:59.626Z,1007.60
2017-10-18T00:15:07.769Z,1007.60
2017-10-18T00:15:15.915Z,1007.59
2017-10-18T00:15:24.041Z,1007.63
2017-10-18T00:15:32.179Z,1007.62
2017-10-18T00:15:40.316Z,1007.64
2017-10-18T00:15:48.454Z,1007.54
2017-10-18T00:15:56.596Z,1007.54
2017-10-18T00:16:04.731Z,1007.59
2017-10-18T00:16:12.866Z,1007.59
2017-10-18T00:16:21.002Z,1007.54
2017-10-18T00:16:29.134Z,1007.56
2017-10-18T00:16:46.525Z,1007.58
2017-10-18T00:16:54.750Z,1007.54
2017-10-18T00:17:03.082Z,1007.60
2017-10-18T00:17:11.031Z,1007.57
2017-10-18T00:17:19.154Z,1007.65
2017-10-18T00:17:27.301Z,1007.57
2017-10-18T00:17:35.434Z,1007.57
2017-10-18T00:17:43.586Z,1007.47
2017-10-18T00:17:51.714Z,1007.55
2017-10-18T00:17:59.853Z,1007.62
2017-10-18T00:18:07.985Z,1007.60
2017-10-18T00:18:16.134Z,1007.56
2017-10-18T00:18:25.869Z,1007.62
2017-10-18T00:18:34.008Z,1007.61
2017-10-18T00:18:42.149Z,1007.53
2017-10-18T00:18:50.274Z,1007.54
2017-10-18T00:18:58.405Z,1007.56
2017-10-18T00:19:06.549Z,1007.56
2017-10-18T00:19:14.681Z,1007.60
2017-10-18T00:19:22.830Z,1007.64
2017-10-18T00:19:30.969Z,1007.54
2017-10-18T00:19:39.102Z,1007.59
2017-10-18T00:19:47.229Z,1007.63
2017-10-18T00:19:56.985Z,1007.56
2017-10-18T00:20:05.106Z,1007.58
2017-10-18T00:20:13.266Z,1007.56
2017-10-18T00:20:21.401Z,1007.61
2017-10-18T00:20:29.538Z,1007.56
2017-10-18T00:20:37.661Z,1007.56
2017-10-18T00:20:45.797Z,1007.52
2017-10-18T00:20:53.929Z,1007.51
2017-10-18T00:21:06.838Z,1007.58
2017-10-18T00:21:14.438Z,1007.60
2017-10-18T00:21:22.594Z,1007.54
2017-10-18T00:21:30.725Z,1007.56
2017-10-18T00:21:38.865Z,1007.49
2017-10-18T00:21:46.981Z,1007.50
2017-10-18T00:21:55.121Z,1007.55
2017-10-18T00:22:03.261Z,1007.52
2017-10-18T00:22:11.402Z,1007.54
2017-10-18T00:22:19.541Z,1007.57
2017-10-18T00:22:27.666Z,1007.52
2017-10-18T00:22:35.810Z,1007.53
2017-10-18T00:22:43.950Z,1007.51
2017-10-18T00:22:52.086Z,1007.53
2017-10-18T00:23:00.225Z,1007.48
2017-10-18T00:23:08.414Z,1007.53
2017-10-18T00:23:16.493Z,1007.56
2017-10-18T00:23:24.631Z,1007.56
2017-10-18T00:23:32.773Z,1007.53
2017-10-18T00:23:40.905Z,1007.51
2017-10-18T00:23:49.045Z,1007.57
2017-10-18T00:23:57.182Z,1007.51
2017-10-18T00:24:05.314Z,1007.62
2017-10-18T00:24:13.566Z,1007.57
2017-10-18T00:24:28.365Z,1007.54
2017-10-18T00:24:37.170Z,1007.52
2017-10-18T00:24:45.294Z,1007.54
2017-10-18T00:24:53.433Z,1007.54
2017-10-18T00:25:01.569Z,1007.47
2017-10-18T00:25:09.709Z,1007.50
2017-10-18T00:25:17.853Z,1007.51
2017-10-18T00:25:26.195Z,1007.47
2017-10-18T00:25:34.135Z,1007.52
2017-10-18T00:25:42.274Z,1007.50
2017-10-18T00:25:50.403Z,1007.54
2017-10-18T00:25:58.533Z,1007.56
2017-10-18T00:26:06.678Z,1007.54
2017-10-18T00:26:14.811Z,1007.54
2017-10-18T00:26:22.949Z,1007.55
2017-10-18T00:26:31.084Z,1007.45
2017-10-18T00:26:39.221Z,1007.54
2017-10-18T00:26:47.365Z,1007.54
2017-10-18T00:26:55.518Z,1007.44
2017-10-18T00:27:03.645Z,1007.56
2017-10-18T00:27:18.237Z,1007.54
2017-10-18T00:27:25.739Z,1007.47
2017-10-18T00:27:33.882Z,1007.48
2017-10-18T00:27:42.019Z,1007.51
2017-10-18T00:27:50.158Z,1007.49
2017-10-18T00:27:58.309Z,1007.55
2017-10-18T00:28:06.426Z,1007.56
2017-10-18T00:28:19.334Z,1007.55
2017-10-18T00:28:26.934Z,1007.50
2017-10-18T00:28:35.085Z,1007.52
2017-10-18T00:28:43.217Z,1007.52
2017-10-18T00:28:51.342Z,1007.44
2017-10-18T00:28:59.482Z,1007.46
2017-10-18T00:29:07.623Z,1007.49
2017-10-18T00:29:15.751Z,1007.41
2017-10-18T00:29:23.890Z,1007.47
2017-10-18T00:29:32.045Z,1007.51
2017-10-18T00:29:40.175Z,1007.47
2017-10-18T00:29:48.297Z,1007.50
2017-10-18T00:29:56.445Z,1007.46
2017-10-18T00:30:04.582Z,1007.43
2017-10-18T00:30:12.718Z,1007.44
2017-10-18T00:30:20.871Z,1007.51
2017-10-18T00:30:29.009Z,1007.46
2017-10-18T00:30:37.125Z,1007.36
2017-10-18T00:30:45.274Z,1007.47
2017-10-18T00:30:53.397Z,1007.51
2017-10-18T00:31:01.577Z,1007.42
2017-10-18T00:31:09.705Z,1007.50
2017-10-18T00:31:17.834Z,1007.45
2017-10-18T00:31:25.953Z,1007.43
2017-10-18T00:31:39.861Z,1007.40
2017-10-18T00:31:48.055Z,1007.45
2017-10-18T00:32:03.876Z,1007.49
2017-10-18T00:32:11.779Z,1007.41
2017-10-18T00:32:19.898Z,1007.44
2017-10-18T00:32:28.038Z,1007.41
2017-10-18T00:32:36.187Z,1007.40
2017-10-18T00:32:44.316Z,1007.43
2017-10-18T00:32:52.461Z,1007.48
2017-10-18T00:33:00.597Z,1007.46
2017-10-18T00:33:08.717Z,1007.47
2017-10-18T00:33:16.869Z,1007.45
2017-10-18T00:33:24.992Z,1007.45
2017-10-18T00:33:33.129Z,1007.49
2017-10-18T00:33:41.286Z,1007.49
2017-10-18T00:33:49.406Z,1007.41
2017-10-18T00:33:57.544Z,1007.49
2017-10-18T00:34:07.734Z,1007.50
2017-10-18T00:34:15.421Z,1007.45
2017-10-18T00:34:23.561Z,1007.41
2017-10-18T00:34:31.706Z,1007.48
2017-10-18T00:34:39.839Z,1007.48
2017-10-18T00:34:53.726Z,1007.46
2017-10-18T00:35:01.955Z,1007.52
2017-10-18T00:35:14.833Z,1007.50
2017-10-18T00:35:22.485Z,1007.47
2017-10-18T00:35:30.582Z,1007.43
2017-10-18T00:35:38.714Z,1007.41
2017-10-18T00:35:52.615Z,1007.44
2017-10-18T00:36:00.827Z,1007.48
2017-10-18T00:36:08.961Z,1007.43
2017-10-18T00:36:17.093Z,1007.43
2017-10-18T00:36:25.229Z,1007.42
2017-10-18T00:36:33.369Z,1007.47
2017-10-18T00:36:41.519Z,1007.52
2017-10-18T00:36:49.649Z,1007.42
2017-10-18T00:36:57.778Z,1007.42
2017-10-18T00:37:12.327Z,1007.43
2017-10-18T00:37:20.466Z,1007.53
2017-10-18T00:37:28.619Z,1007.42
2017-10-18T00:37:36.748Z,1007.47
2017-10-18T00:37:44.861Z,1007.49
2017-10-18T00:37:54.598Z,1007.45
2017-10-18T00:38:02.746Z,1007.46
2017-10-18T00:38:10.890Z,1007.42
2017-10-18T00:38:24.770Z,1007.45
2017-10-18T00:38:32.985Z,1007.51
2017-10-18T00:38:41.126Z,1007.44
2017-10-18T00:38:49.257Z,1007.42
2017-10-18T00:38:57.389Z,1007.43
2017-10-18T00:39:05.529Z,1007.43
2017-10-18T00:39:13.662Z,1007.43
2017-10-18T00:39:21.810Z,1007.40
2017-10-18T00:39:30.086Z,1007.48
2017-10-18T00:39:38.097Z,1007.44
2017-10-18T00:39:46.225Z,1007.40
2017-10-18T00:39:54.362Z,1007.43
2017-10-18T00:40:02.490Z,1007.45
2017-10-18T00:40:10.629Z,1007.43
2017-10-18T00:40:18.781Z,1007.37
2017-10-18T00:40:26.917Z,1007.41
2017-10-18T00:40:35.058Z,1007.41
2017-10-18T00:40:49.591Z,1007.45
2017-10-18T00:40:57.726Z,1007.41
2017-10-18T00:41:05.869Z,1007.40
2017-10-18T00:41:15.602Z,1007.42
2017-10-18T00:41:23.745Z,1007.40
2017-10-18T00:41:31.870Z,1007.36
2017-10-18T00:41:40.002Z,1007.41
2017-10-18T00:41:48.142Z,1007.39
2017-10-18T00:41:56.284Z,1007.44
2017-10-18T00:42:04.421Z,1007.43
2017-10-18T00:42:12.567Z,1007.47
2017-10-18T00:42:20.697Z,1007.43
2017-10-18T00:42:28.834Z,1007.42
2017-10-18T00:42:38.579Z,1007.45
2017-10-18T00:42:46.701Z,1007.41
2017-10-18T00:42:54.850Z,1007.41
2017-10-18T00:43:02.997Z,1007.44
2017-10-18T00:43:12.719Z,1007.41
2017-10-18T00:43:22.474Z,1007.45
2017-10-18T00:43:30.596Z,1007.40
2017-10-18T00:43:38.730Z,1007.36
2017-10-18T00:43:46.865Z,1007.50
2017-10-18T00:43:55.018Z,1007.43
2017-10-18T00:44:04.737Z,1007.41
2017-10-18T00:44:17.637Z,1007.43
2017-10-18T00:44:25.258Z,1007.39
2017-10-18T00:44:33.385Z,1007.45
2017-10-18T00:44:41.523Z,1007.38
2017-10-18T00:44:49.666Z,1007.34
2017-10-18T00:44:57.804Z,1007.35
2017-10-18T00:45:05.950Z,1007.45
2017-10-18T00:45:14.094Z,1007.40
2017-10-18T00:45:22.230Z,1007.43
2017-10-18T00:45:30.354Z,1007.49
2017-10-18T00:45:38.513Z,1007.42
2017-10-18T00:45:46.634Z,1007.42
2017-10-18T00:45:54.770Z,1007.46
2017-10-18T00:46:02.910Z,1007.42
2017-10-18T00:46:11.033Z,1007.40
2017-10-18T00:46:19.187Z,1007.38
2017-10-18T00:46:27.321Z,1007.37
2017-10-18T00:46:35.454Z,1007.45
2017-10-18T00:46:43.588Z,1007.42
2017-10-18T00:46:53.329Z,1007.46
2017-10-18T00:47:01.457Z,1007.39
2017-10-18T00:47:09.602Z,1007.36
2017-10-18T00:47:22.505Z,1007.40
2017-10-18T00:47:33.302Z,1007.45
2017-10-18T00:47:41.454Z,1007.37
2017-10-18T00:47:49.589Z,1007.39
2017-10-18T00:47:57.722Z,1007.48
2017-10-18T00:48:05.858Z,1007.34
2017-10-18T00:48:13.990Z,1007.38
2017-10-18T00:48:22.133Z,1007.36
2017-10-18T00:48:30.270Z,1007.41
2017-10-18T00:48:38.490Z,1007.40
2017-10-18T00:48:46.537Z,1007.39
2017-10-18T00:48:54.673Z,1007.43
2017-10-18T00:49:02.817Z,1007.37
2017-10-18T00:49:10.946Z,1007.40
2017-10-18T00:49:19.086Z,1007.46
2017-10-18T00:49:27.238Z,1007.40
2017-10-18T00:49:35.379Z,1007.39
2017-10-18T00:49:43.501Z,1007.42
2017-10-18T00:49:51.634Z,1007.36
2017-10-18T00:49:59.788Z,1007.36
2017-10-18T00:50:07.922Z,1007.39
2017-10-18T00:50:17.658Z,1007.38
2017-10-18T00:50:25.793Z,1007.41
2017-10-18T00:50:39.693Z,1007.38
2017-10-18T00:50:47.911Z,1007.39
2017-10-18T00:50:56.042Z,1007.42
2017-10-18T00:51:04.165Z,1007.36
2017-10-18T00:51:12.297Z,1007.34
2017-10-18T00:51:20.446Z,1007.33
2017-10-18T00:51:28.574Z,1007.41
2017-10-18T00:51:36.730Z,1007.41
2017-10-18T00:51:45.062Z,1007.39
2017-10-18T00:51:52.999Z,1007.32
2017-10-18T00:52:01.121Z,1007.35
2017-10-18T00:52:09.266Z,1007.35
2017-10-18T00:52:17.402Z,1007.43
2017-10-18T00:52:25.535Z,1007.36
2017-10-18T00:52:33.695Z,1007.39
2017-10-18T00:52:41.809Z,1007.40
2017-10-18T00:52:49.946Z,1007.45
2017-10-18T00:52:58.090Z,1007.38
2017-10-18T00:53:06.231Z,1007.40
2017-10-18T00:53:14.365Z,1007.38
2017-10-18T00:53:22.519Z,1007.42
2017-10-18T00:53:30.641Z,1007.36
2017-10-18T00:53:38.774Z,1007.33
2017-10-18T00:53:46.918Z,1007.36
2017-10-18T00:53:55.046Z,1007.41
2017-10-18T00:54:07.955Z,1007.36
2017-10-18T00:54:15.554Z,1007.44
2017-10-18T00:54:23.690Z,1007.45
2017-10-18T00:54:31.825Z,1007.36
2017-10-18T00:54:39.962Z,1007.39
2017-10-18T00:54:48.109Z,1007.44
2017-10-18T00:54:56.246Z,1007.41
2017-10-18T00:55:04.390Z,1007.42
2017-10-18T00:55:12.506Z,1007.38
2017-10-18T00:55:20.657Z,1007.41
2017-10-18T00:55:28.785Z,1007.42
2017-10-18T00:55:36.927Z,1007.46
2017-10-18T00:55:45.080Z,1007.40
2017-10-18T00:55:53.198Z,1007.45
2017-10-18T00:56:01.341Z,1007.40
2017-10-18T00:56:09.478Z,1007.41
2017-10-18T00:56:17.613Z,1007.38
2017-10-18T00:56:25.749Z,1007.38
2017-10-18T00:56:33.896Z,1007.38
2017-10-18T00:56:42.025Z,1007.45
2017-10-18T00:56:50.163Z,1007.43
2017-10-18T00:56:58.297Z,1007.36
2017-10-18T00:57:06.430Z,1007.46
2017-10-18T00:57:20.337Z,1007.41
2017-10-18T00:57:28.546Z,1007.43
2017-10-18T00:57:36.685Z,1007.38
2017-10-18T00:57:50.585Z,1007.41
2017-10-18T00:57:58.785Z,1007.39
2017-10-18T00:58:06.909Z,1007.42
2017-10-18T00:58:15.057Z,1007.45
2017-10-18T00:58:23.197Z,1007.42
2017-10-18T00:58:31.335Z,1007.46
2017-10-18T00:58:39.483Z,1007.34
2017-10-18T00:58:47.601Z,1007.49
2017-10-18T00:58:55.737Z,1007.46
2017-10-18T00:59:03.879Z,1007.39
2017-10-18T00:59:12.014Z,1007.43
2017-10-18T00:59:20.165Z,1007.44
2017-10-18T00:59:28.301Z,1007.45
2017-10-18T00:59:36.435Z,1007.43
2017-10-18T00:59:44.570Z,1007.39
2017-10-18T00:59:52.706Z,1007.43
2017-10-18T01:00:00.846Z,1007.43
2017-10-18T01:00:08.969Z,1007.37
2017-10-18T01:00:17.129Z,1007.39
2017-10-18T01:00:25.257Z,1007.43
2017-10-18T01:00:33.394Z,1007.44
2017-10-18T01:00:41.535Z,1007.50
2017-10-18T01:00:49.692Z,1007.43
2017-10-18T01:00:57.801Z,1007.45
2017-10-18T01:01:05.947Z,1007.43
2017-10-18T01:01:19.842Z,1007.39
2017-10-18T01:01:28.056Z,1007.46
2017-10-18T01:01:36.182Z,1007.46
2017-10-18T01:01:44.318Z,1007.43
2017-10-18T01:01:52.461Z,1007.41
2017-10-18T01:02:00.599Z,1007.47
2017-10-18T01:02:08.745Z,1007.37
2017-10-18T01:02:16.877Z,1007.39
2017-10-18T01:02:25.002Z,1007.41
2017-10-18T01:02:33.133Z,1007.45
2017-10-18T01:02:41.293Z,1007.43
2017-10-18T01:02:49.426Z,1007.39
2017-10-18T01:02:57.569Z,1007.44
2017-10-18T01:03:05.698Z,1007.44
2017-10-18T01:03:13.830Z,1007.43
2017-10-18T01:03:21.990Z,1007.44
2017-10-18T01:03:30.097Z,1007.46
2017-10-18T01:03:38.246Z,1007.36
2017-10-18T01:03:46.381Z,1007.36
2017-10-18T01:03:54.534Z,1007.50
2017-10-18T01:04:02.649Z,1007.41
2017-10-18T01:04:10.807Z,1007.43
2017-10-18T01:04:18.932Z,1007.46
2017-10-18T01:04:27.057Z,1007.44
2017-10-18T01:04:35.206Z,1007.49
2017-10-18T01:04:43.354Z,1007.44
2017-10-18T01:04:51.477Z,1007.48
2017-10-18T01:04:59.610Z,1007.44
2017-10-18T01:05:07.770Z,1007.42
2017-10-18T01:05:15.889Z,1007.48
2017-10-18T01:05:24.030Z,1007.39
2017-10-18T01:05:32.185Z,1007.43
2017-10-18T01:05:40.305Z,1007.41
2017-10-18T01:05:48.439Z,1007.49
2017-10-18T01:06:02.344Z,1007.48
2017-10-18T01:06:10.549Z,1007.46
2017-10-18T01:06:18.674Z,1007.39
2017-10-18T01:06:26.821Z,1007.45
2017-10-18T01:06:34.973Z,1007.51
2017-10-18T01:06:43.106Z,1007.47
2017-10-18T01:06:51.237Z,1007.44
2017-10-18T01:06:59.367Z,1007.51
2017-10-18T01:07:12.258Z,1007.53
2017-10-18T01:07:19.893Z,1007.54
2017-10-18T01:07:28.014Z,1007.59
2017-10-18T01:07:36.147Z,1007.50
2017-10-18T01:07:44.283Z,1007.53
2017-10-18T01:07:56.370Z,1007.51
2017-10-18T01:08:06.443Z,1007.50
2017-10-18T01:08:15.093Z,1007.53
2017-10-18T01:08:24.837Z,1007.48
2017-10-18T01:08:32.971Z,1007.45
2017-10-18T01:08:41.118Z,1007.53
2017-10-18T01:08:49.246Z,1007.48
2017-10-18T01:08:57.396Z,1007.56
2017-10-18T01:09:05.529Z,1007.53
2017-10-18T01:09:13.662Z,1007.53
2017-10-18T01:09:21.830Z,1007.53
2017-10-18T01:09:29.930Z,1007.54
2017-10-18T01:09:38.078Z,1007.53
2017-10-18T01:09:46.218Z,1007.50
2017-10-18T01:09:54.350Z,1007.50
2017-10-18T01:10:02.486Z,1007.51
2017-10-18T01:10:19.501Z,1007.44
2017-10-18T01:10:27.777Z,1007.50
2017-10-18T01:10:35.914Z,1007.53
2017-10-18T01:10:44.069Z,1007.45
2017-10-18T01:10:52.197Z,1007.47
2017-10-18T01:11:00.337Z,1007.52
2017-10-18T01:11:08.483Z,1007.54
2017-10-18T01:11:16.601Z,1007.52
2017-10-18T01:11:24.754Z,1007.43
2017-10-18T01:11:32.897Z,1007.45
2017-10-18T01:11:41.038Z,1007.54
2017-10-18T01:11:49.154Z,1007.51
2017-10-18T01:11:57.305Z,1007.50
2017-10-18T01:12:05.433Z,1007.57
2017-10-18T01:12:13.573Z,1007.46
2017-10-18T01:12:21.730Z,1007.47
2017-10-18T01:12:29.848Z,1007.50
2017-10-18T01:12:37.986Z,1007.46
2017-10-18T01:12:46.160Z,1007.54
2017-10-18T01:12:54.259Z,1007.53
2017-10-18T01:13:02.394Z,1007.51
2017-10-18T01:13:10.559Z,1007.53
2017-10-18T01:13:18.679Z,1007.54
2017-10-18T01:13:26.814Z,1007.47
2017-10-18T01:13:34.942Z,1007.50
2017-10-18T01:13:48.829Z,1007.53
2017-10-18T01:13:57.045Z,1007.51
2017-10-18T01:14:05.178Z,1007.51
2017-10-18T01:14:19.718Z,1007.52
2017-10-18T01:14:29.713Z,1007.48
2017-10-18T01:14:37.599Z,1007.50
2017-10-18T01:14:45.738Z,1007.47
2017-10-18T01:14:53.878Z,1007.50
2017-10-18T01:15:02.012Z,1007.53
2017-10-18T01:15:10.158Z,1007.55
2017-10-18T01:15:18.298Z,1007.47
2017-10-18T01:15:26.425Z,1007.47
2017-10-18T01:15:34.570Z,1007.52
2017-10-18T01:15:42.706Z,1007.58
2017-10-18T01:15:50.843Z,1007.52
2017-10-18T01:15:58.965Z,1007.54
2017-10-18T01:16:07.134Z,1007.51
2017-10-18T01:16:15.258Z,1007.49
2017-10-18T01:16:23.389Z,1007.44
2017-10-18T01:16:31.526Z,1007.54
2017-10-18T01:16:39.666Z,1007.52
2017-10-18T01:16:53.562Z,1007.54
2017-10-18T01:17:01.768Z,1007.58
2017-10-18T01:17:09.914Z,1007.50
2017-10-18T01:17:18.043Z,1007.55
2017-10-18T01:17:26.198Z,1007.50
2017-10-18T01:17:34.309Z,1007.55
2017-10-18T01:17:42.458Z,1007.53
2017-10-18T01:17:50.594Z,1007.53
2017-10-18T01:17:58.740Z,1007.51
2017-10-18T01:18:06.869Z,1007.51
2017-10-18T01:18:15.006Z,1007.54
2017-10-18T01:18:23.134Z,1007.48
2017-10-18T01:18:31.275Z,1007.58
2017-10-18T01:18:39.421Z,1007.49
2017-10-18T01:18:47.554Z,1007.56
2017-10-18T01:18:55.693Z,1007.45
2017-10-18T01:19:03.830Z,1007.53
2017-10-18T01:19:11.961Z,1007.57
2017-10-18T01:19:20.115Z,1007.55
2017-10-18T01:19:28.236Z,1007.53
2017-10-18T01:19:36.381Z,1007.48
2017-10-18T01:19:44.521Z,1007.53
2017-10-18T01:20:00.405Z,1007.48
2017-10-18T01:20:08.231Z,1007.50
2017-10-18T01:20:16.362Z,1007.54
2017-10-18T01:20:30.253Z,1007.53
2017-10-18T01:20:38.462Z,1007.48
2017-10-18T01:20:46.589Z,1007.49
2017-10-18T01:20:54.734Z,1007.45
2017-10-18T01:21:02.875Z,1007.51
2017-10-18T01:21:11.018Z,1007.51
2017-10-18T01:21:19.158Z,1007.45
2017-10-18T01:21:27.285Z,1007.46
2017-10-18T01:21:35.418Z,1007.40
2017-10-18T01:21:43.561Z,1007.42
2017-10-18T01:21:51.686Z,1007.43
2017-10-18T01:21:59.834Z,1007.42
2017-10-18T01:22:07.978Z,1007.45
2017-10-18T01:22:16.102Z,1007.50
2017-10-18T01:22:24.234Z,1007.45
2017-10-18T01:22:32.379Z,1007.43
2017-10-18T01:22:40.514Z,1007.45
2017-10-18T01:22:48.662Z,1007.41
2017-10-18T01:22:56.798Z,1007.44
2017-10-18T01:23:04.942Z,1007.45
2017-10-18T01:23:13.078Z,1007.42
2017-10-18T01:23:21.206Z,1007.46
2017-10-18T01:23:29.342Z,1007.42
2017-10-18T01:23:37.489Z,1007.46
2017-10-18T01:23:51.374Z,1007.46
2017-10-18T01:23:59.599Z,1007.43
2017-10-18T01:24:07.718Z,1007.44
2017-10-18T01:24:15.854Z,1007.35
2017-10-18T01:24:23.993Z,1007.43
2017-10-18T01:24:32.129Z,1007.35
2017-10-18T01:24:40.270Z,1007.43
2017-10-18T01:24:48.413Z,1007.41
2017-10-18T01:24:56.565Z,1007.33
2017-10-18T01:25:04.677Z,1007.42
2017-10-18T01:25:12.818Z,1007.41
2017-10-18T01:25:20.964Z,1007.34
2017-10-18T01:25:29.121Z,1007.40
2017-10-18T01:25:37.242Z,1007.34
2017-10-18T01:25:45.377Z,1007.32
2017-10-18T01:25:53.506Z,1007.38
2017-10-18T01:26:01.650Z,1007.34
2017-10-18T01:26:09.794Z,1007.36
2017-10-18T01:26:17.921Z,1007.34
2017-10-18T01:26:26.059Z,1007.32
2017-10-18T01:26:34.197Z,1007.35
2017-10-18T01:26:42.342Z,1007.34
2017-10-18T01:26:50.465Z,1007.37
2017-10-18T01:26:58.606Z,1007.37
2017-10-18T01:27:12.498Z,1007.37
2017-10-18T01:27:22.313Z,1007.35
2017-10-18T01:27:30.445Z,1007.37
2017-10-18T01:27:38.582Z,1007.26
2017-10-18T01:27:46.725Z,1007.25
2017-10-18T01:27:54.867Z,1007.32
2017-10-18T01:28:02.989Z,1007.29
2017-10-18T01:28:11.137Z,1007.32
2017-10-18T01:28:19.269Z,1007.24
2017-10-18T01:28:27.402Z,1007.25
2017-10-18T01:28:35.541Z,1007.28
2017-10-18T01:28:43.702Z,1007.28
2017-10-18T01:28:51.829Z,1007.26
2017-10-18T01:28:59.962Z,1007.23
2017-10-18T01:29:08.094Z,1007.21
2017-10-18T01:29:16.245Z,1007.30
2017-10-18T01:29:24.374Z,1007.27
2017-10-18T01:29:32.513Z,1007.23
2017-10-18T01:29:40.662Z,1007.26
2017-10-18T01:29:48.773Z,1007.24
2017-10-18T01:29:56.922Z,1007.28
2017-10-18T01:30:05.054Z,1007.24
2017-10-18T01:30:13.290Z,1007.20
2017-10-18T01:30:27.086Z,1007.23
2017-10-18T01:30:35.306Z,1007.23
2017-10-18T01:30:43.441Z,1007.29
2017-10-18T01:30:51.573Z,1007.19
2017-10-18T01:30:59.709Z,1007.23
2017-10-18T01:31:07.842Z,1007.24
2017-10-18T01:31:15.998Z,1007.23
2017-10-18T01:31:24.137Z,1007.25
2017-10-18T01:31:32.278Z,1007.28
2017-10-18T01:31:40.413Z,1007.24
2017-10-18T01:31:48.538Z,1007.27
2017-10-18T01:31:56.669Z,1007.26
2017-10-18T01:32:04.817Z,1007.27
2017-10-18T01:32:12.946Z,1007.22
2017-10-18T01:32:21.093Z,1007.28
2017-10-18T01:32:29.229Z,1007.28
2017-10-18T01:32:37.353Z,1007.26
2017-10-18T01:32:45.498Z,1007.31
2017-10-18T01:32:53.638Z,1007.31
2017-10-18T01:33:01.771Z,1007.28
2017-10-18T01:33:09.926Z,1007.29
2017-10-18T01:33:18.054Z,1007.32
2017-10-18T01:33:26.201Z,1007.31
2017-10-18T01:33:34.327Z,1007.35
2017-10-18T01:33:42.461Z,1007.29
2017-10-18T01:33:50.604Z,1007.36
2017-10-18T01:33:58.749Z,1007.29
2017-10-18T01:34:06.882Z,1007.29
2017-10-18T01:34:20.782Z,1007.30
2017-10-18T01:34:28.975Z,1007.25
2017-10-18T01:34:37.121Z,1007.30
2017-10-18T01:34:45.254Z,1007.28
2017-10-18T01:34:53.403Z,1007.29
2017-10-18T01:35:01.530Z,1007.25
2017-10-18T01:35:09.677Z,1007.20
2017-10-18T01:35:17.802Z,1007.21
2017-10-18T01:35:25.949Z,1007.29
2017-10-18T01:35:34.083Z,1007.18
2017-10-18T01:35:42.597Z,1007.27
2017-10-18T01:35:50.358Z,1007.24
2017-10-18T01:35:58.485Z,1007.17
2017-10-18T01:36:06.621Z,1007.23
2017-10-18T01:36:16.387Z,1007.15
2017-10-18T01:36:24.493Z,1007.21
2017-10-18T01:36:32.630Z,1007.16
2017-10-18T01:36:40.769Z,1007.26
2017-10-18T01:36:48.909Z,1007.21
2017-10-18T01:36:57.046Z,1007.20
2017-10-18T01:37:05.370Z,1007.17
2017-10-18T01:37:13.321Z,1007.17
2017-10-18T01:37:21.465Z,1007.23
2017-10-18T01:37:33.853Z,1007.22
2017-10-18T01:37:41.971Z,1007.28
2017-10-18T01:37:50.120Z,1007.22
2017-10-18T01:37:58.239Z,1007.19
2017-10-18T01:38:06.369Z,1007.25
2017-10-18T01:38:14.510Z,1007.20
2017-10-18T01:38:22.650Z,1007.21
2017-10-18T01:38:30.790Z,1007.17
2017-10-18T01:38:38.934Z,1007.16
2017-10-18T01:38:47.065Z,1007.24
2017-10-18T01:38:55.193Z,1007.23
2017-10-18T01:39:03.330Z,1007.23
2017-10-18T01:39:11.482Z,1007.23
2017-10-18T01:39:19.619Z,1007.21
2017-10-18T01:39:27.753Z,1007.20
2017-10-18T01:39:35.894Z,1007.23
2017-10-18T01:39:44.023Z,1007.21
2017-10-18T01:39:52.158Z,1007.17
2017-10-18T01:40:00.299Z,1007.20
2017-10-18T01:40:08.438Z,1007.22
2017-10-18T01:40:16.592Z,1007.22
2017-10-18T01:40:24.713Z,1007.23
2017-10-18T01:40:32.845Z,1007.26
2017-10-18T01:40:45.754Z,1007.21
2017-10-18T01:40:53.361Z,1007.23
2017-10-18T01:41:01.510Z,1007.25
2017-10-18T01:41:09.626Z,1007.22
2017-10-18T01:41:17.785Z,1007.27
2017-10-18T01:41:25.906Z,1007.28
2017-10-18T01:41:34.038Z,1007.23
2017-10-18T01:41:42.183Z,1007.21
2017-10-18T01:41:50.325Z,1007.21
2017-10-18T01:41:58.450Z,1007.25
2017-10-18T01:42:06.586Z,1007.25
2017-10-18T01:42:14.733Z,1007.24
2017-10-18T01:42:22.864Z,1007.22